עמוד ראשי
METAR-TAF:

METAR-TAF

שדות תעופה :

ארמוסיו, מקסיקו

קו רוחב: 29-04N, קו אורך: 110-57W, גובה: 211מטר

תצפית מזג אוויר נוכחית

הדו"ח נערך לפני 38דקות, בשעה 07:40 UTC
רוח 4קשר מכיוון צפון/צפון-מערב
טמפרטורת 27 צלסיוס
לחות 66%
לחץ 1007 hPa
ראות: 16.1קילומטר
שמיים נקיים

METAR: MMHO 160740Z 33004KT 10SM SKC 27/20 A2975 RMK HZY

זמן: 01:18 (08:18 UTC)

תחזית

הדו"ח נערך לפני 3 שעות ו 25דקות, בשעה 04:53 UTC
תחזית בתוקף מ 16 ב 06 UTC עד 17 ב 06 UTC
רוח קשר מכיוון צפון
ראות: 10קילומטר
שמיים נקיים
מ 16 ב 1600UTC
רוח 5קשר מכיוון דרום
ראות: 10קילומטר
שמיים נקיים
יעשה מ
16 ב 20 UTC עד 16 ב 21 UTC
רוח 12קשר מכיוון מערב/דרום-מערב
מ 17 ב 0400UTC
רוח קשר מכיוון צפון
ראות: 10קילומטר
שמיים נקיים

TAF: MMHO 160453Z 1606/1706 00000KT P6SM SKC FM161600 18005KT P6SM SKC BECMG 1620/1621 24012KT FM170400 00000KT P6SM SKC

תצפיות ותחזיות מזג אוויר לגבי יותר מ- 4,000 שדות תעופה ברחבי העולם. דוחות METAR ו- TAF.

התחנות הזמינות מסומנות בנקודות צהובות ואדומות על גבי המפה.

העבר את העכבר לנקודה הצבעונית על מנת לראות את שם התחנה.

לאחר מכן, לחץ כדי לראות את תוכן ואת תחזיות מזג האוויר.

כדי לשנות את המפה: לחץ על הכפתורים הירוקים עם הפלוס השחור כדי להתקרב; על הכפתור הירוק עם המקף כדי להתרחק; או בחיצים הירוקים למפות סמוכות.


METAR-TAF: